Terminal Aerodrome Forecast
Issued by NWS

Home | Current Version | Previous Version | Graphics & Text | Print | Product List | Glossary On
Versions: 1 2 3 4 5 6 7 8 9 10 11 12 13 14 15
000
FTUS43 KGRB 291700
TAFMTW
TAF
KMTW 291726Z 2918/3018 03013G21KT P6SM VCSH OVC004
      TEMPO 2919/2922 4SM -SHRA BR SCT004 OVC012
     FM292200 03012G20KT P6SM SCT010 OVC020
      TEMPO 2922/3002 BKN010
     FM300200 36010G18KT P6SM BKN018
     FM300700 35010KT P6SM BKN015
     FM301400 02011KT P6SM BKN020=

USA.gov is the U.S. government's official web portal to all federal, state and local government web resources and services.